Terminal Aerodrome Forecast
Issued by NWS Missoula, MT

Home | Current Version | Previous Version | Text Only | Print | Product List | Glossary On
Versions: 1 2 3 4 5 6 7 8 9 10 11 12 13
000
FTUS45 KMSO 232320
TAFBTM
TAF
KBTM 232320Z 2400/2424 28009KT P6SM SKC
     FM241400 28013G20KT P6SM SCT060
     FM241700 29020G30KT P6SM SCT060=

USA.gov is the U.S. government's official web portal to all federal, state and local government web resources and services.